createdAt,value
2022-11-06T00:01:13.014Z,87.26
2022-11-06T00:03:42.201Z,87.40
2022-11-06T00:06:31.216Z,87.45
2022-11-06T00:09:01.114Z,87.19
2022-11-06T00:11:30.350Z,87.05
2022-11-06T00:14:00.199Z,87.00
2022-11-06T00:16:29.190Z,86.94
2022-11-06T00:19:00.125Z,86.66
2022-11-06T00:21:30.255Z,86.88
2022-11-06T00:24:00.606Z,86.70
2022-11-06T00:26:30.883Z,86.81
2022-11-06T00:28:59.765Z,86.74
2022-11-06T00:31:30.561Z,86.66
2022-11-06T00:34:00.496Z,86.71
2022-11-06T00:36:32.813Z,86.67
2022-11-06T00:39:01.325Z,86.56
2022-11-06T00:41:29.589Z,86.68
2022-11-06T00:44:00.711Z,86.53
2022-11-06T00:46:29.978Z,86.41
2022-11-06T00:48:58.189Z,86.31
2022-11-06T00:51:39.351Z,86.11
2022-11-06T00:54:11.475Z,86.20
2022-11-06T00:56:40.273Z,86.27
2022-11-06T00:59:12.523Z,86.40
2022-11-06T01:01:44.070Z,86.49
2022-11-06T01:04:15.135Z,86.40
2022-11-06T01:06:46.206Z,86.19
2022-11-06T01:09:17.245Z,86.15
2022-11-06T01:14:43.352Z,86.06
2022-11-06T01:17:12.111Z,86.03
2022-11-06T01:19:40.325Z,86.06
2022-11-06T01:22:08.713Z,86.01
2022-11-06T01:24:36.864Z,85.89
2022-11-06T01:27:25.443Z,85.92
2022-11-06T01:29:53.235Z,85.80
2022-11-06T01:32:21.265Z,85.65
2022-11-06T01:34:51.147Z,85.75
2022-11-06T01:37:19.493Z,85.49
2022-11-06T01:39:50.550Z,85.37
2022-11-06T01:42:20.225Z,85.11
2022-11-06T01:45:29.514Z,85.13
2022-11-06T01:47:57.826Z,84.93
2022-11-06T01:50:27.157Z,85.03
2022-11-06T01:52:56.201Z,84.98
2022-11-06T01:55:30.502Z,84.98
2022-11-06T01:58:01.803Z,84.69
2022-11-06T02:05:00.281Z,84.76
2022-11-06T02:07:28.681Z,84.87
2022-11-06T02:09:56.839Z,84.74
2022-11-06T02:12:27.867Z,84.84
2022-11-06T02:15:21.414Z,84.85
2022-11-06T02:18:11.687Z,84.55
2022-11-06T02:21:15.404Z,84.47
2022-11-06T02:24:17.734Z,84.39
2022-11-06T02:27:13.707Z,84.32
2022-11-06T02:29:47.934Z,84.21
2022-11-06T02:32:32.367Z,84.07
2022-11-06T02:35:03.798Z,84.12
2022-11-06T02:37:37.046Z,84.15
2022-11-06T02:40:08.927Z,84.17
2022-11-06T02:42:45.865Z,84.23
2022-11-06T02:45:17.467Z,84.42
2022-11-06T02:47:49.171Z,84.59
2022-11-06T02:50:35.067Z,84.51
2022-11-06T02:53:06.409Z,84.67
2022-11-06T02:55:40.256Z,84.61
2022-11-06T02:58:14.442Z,84.54
2022-11-06T03:00:53.212Z,84.22
2022-11-06T03:03:28.193Z,84.15
2022-11-06T03:06:07.285Z,84.01
2022-11-06T03:09:02.739Z,84.12
2022-11-06T03:11:38.976Z,84.18
2022-11-06T03:14:10.126Z,84.18
2022-11-06T03:16:54.946Z,84.08
2022-11-06T03:19:42.789Z,84.18
2022-11-06T03:22:30.878Z,84.30
2022-11-06T03:25:05.771Z,84.55
2022-11-06T03:27:40.597Z,84.61
2022-11-06T03:30:16.498Z,84.71
2022-11-06T03:32:53.971Z,84.80
2022-11-06T03:35:22.279Z,84.81
2022-11-06T03:37:54.304Z,84.76
2022-11-06T03:40:26.033Z,84.80
2022-11-06T03:43:00.740Z,84.71
2022-11-06T03:45:32.326Z,84.97
2022-11-06T03:48:09.337Z,84.96
2022-11-06T03:50:54.335Z,85.12
2022-11-06T03:53:35.226Z,85.19
2022-11-06T03:56:08.669Z,85.21
2022-11-06T03:58:40.838Z,85.25
2022-11-06T04:01:10.986Z,85.16
2022-11-06T04:03:54.070Z,85.21
2022-11-06T04:06:29.165Z,85.09
2022-11-06T04:09:22.990Z,85.28
2022-11-06T04:12:10.708Z,84.95
2022-11-06T04:14:45.266Z,85.17
2022-11-06T04:17:15.383Z,85.07
2022-11-06T04:19:50.607Z,85.13
2022-11-06T04:22:33.648Z,85.08
2022-11-06T04:25:41.590Z,84.82
2022-11-06T04:28:18.451Z,85.08
2022-11-06T04:30:51.191Z,85.17
2022-11-06T04:33:45.369Z,85.28
2022-11-06T04:36:37.660Z,85.20
2022-11-06T04:39:38.941Z,85.06
2022-11-06T04:42:14.063Z,85.09
2022-11-06T04:44:49.333Z,85.23
2022-11-06T04:47:20.662Z,85.11
2022-11-06T04:49:52.276Z,85.01
2022-11-06T04:52:25.647Z,85.04
2022-11-06T04:54:56.317Z,84.85
2022-11-06T04:57:25.806Z,84.71
2022-11-06T04:59:54.427Z,84.30
2022-11-06T05:02:23.046Z,84.62
2022-11-06T05:04:51.406Z,84.76
2022-11-06T05:07:19.402Z,84.61
2022-11-06T05:09:47.520Z,84.62
2022-11-06T05:12:15.770Z,84.49
2022-11-06T05:14:43.868Z,84.54
2022-11-06T05:17:11.903Z,84.68
2022-11-06T05:19:40.284Z,84.79
2022-11-06T05:22:28.202Z,84.81
2022-11-06T05:24:56.543Z,84.88
2022-11-06T05:27:24.583Z,85.11
2022-11-06T05:29:52.646Z,85.10
2022-11-06T05:32:21.016Z,85.15
2022-11-06T05:34:49.053Z,85.25
2022-11-06T05:37:17.178Z,85.19
2022-11-06T05:39:51.504Z,84.91
2022-11-06T05:42:19.655Z,84.85
2022-11-06T05:44:47.992Z,84.84
2022-11-06T05:47:16.078Z,84.62
2022-11-06T05:49:44.236Z,84.66
2022-11-06T05:52:12.473Z,84.81
2022-11-06T05:54:40.466Z,85.11
2022-11-06T05:57:08.615Z,85.03
2022-11-06T05:59:37.317Z,84.79
2022-11-06T06:02:05.438Z,84.74
2022-11-06T06:04:33.522Z,84.56
2022-11-06T06:07:01.745Z,84.78
2022-11-06T06:09:30.449Z,85.01
2022-11-06T06:11:58.441Z,84.72
2022-11-06T06:14:26.643Z,84.82
2022-11-06T06:16:54.764Z,84.92
2022-11-06T06:19:22.757Z,84.80
2022-11-06T06:21:50.862Z,84.95
2022-11-06T06:24:18.993Z,84.96
2022-11-06T06:26:47.226Z,84.83
2022-11-06T06:29:16.705Z,84.93
2022-11-06T06:31:45.112Z,84.98
2022-11-06T06:34:13.176Z,85.04
2022-11-06T06:36:41.493Z,85.05
2022-11-06T06:39:09.834Z,85.16
2022-11-06T06:41:38.492Z,85.45
2022-11-06T06:44:06.827Z,85.53
2022-11-06T06:46:34.897Z,85.37
2022-11-06T06:49:03.092Z,85.52
2022-11-06T06:51:31.302Z,85.47
2022-11-06T06:53:59.412Z,85.67
2022-11-06T06:56:27.423Z,85.39
2022-11-06T06:58:56.093Z,85.52
2022-11-06T07:01:24.588Z,85.73
2022-11-06T07:03:52.897Z,85.55
2022-11-06T07:06:21.658Z,85.28
2022-11-06T07:08:49.653Z,85.52
2022-11-06T07:11:18.565Z,85.93
2022-11-06T07:13:46.981Z,85.89
2022-11-06T07:16:15.139Z,86.11
2022-11-06T07:18:43.235Z,85.98
2022-11-06T07:21:12.788Z,85.51
2022-11-06T07:23:41.144Z,85.82
2022-11-06T07:26:09.546Z,86.26
2022-11-06T07:28:37.929Z,86.42
2022-11-06T07:31:07.883Z,86.38
2022-11-06T07:33:36.235Z,86.04
2022-11-06T07:36:10.064Z,86.34
2022-11-06T07:38:39.719Z,86.35
2022-11-06T07:41:14.259Z,86.53
2022-11-06T07:43:43.614Z,86.67
2022-11-06T07:46:13.709Z,86.89
2022-11-06T07:48:41.741Z,86.89
2022-11-06T07:51:10.865Z,86.84
2022-11-06T07:53:39.260Z,86.57
2022-11-06T07:56:08.854Z,86.61
2022-11-06T07:58:37.280Z,86.57
2022-11-06T08:01:06.287Z,86.02
2022-11-06T08:03:34.545Z,85.46
2022-11-06T08:06:05.271Z,86.30
2022-11-06T08:08:33.897Z,86.74
2022-11-06T08:11:07.547Z,87.15
2022-11-06T08:13:36.234Z,87.28
2022-11-06T08:16:13.269Z,87.00
2022-11-06T08:18:41.903Z,87.11
2022-11-06T08:21:09.921Z,86.99
2022-11-06T08:23:38.025Z,86.45
2022-11-06T08:26:07.414Z,86.74
2022-11-06T08:28:35.685Z,86.98
2022-11-06T08:31:08.394Z,87.00
2022-11-06T08:33:38.612Z,87.20
2022-11-06T08:36:08.619Z,87.25
2022-11-06T08:38:36.974Z,87.03
2022-11-06T08:41:10.726Z,86.54
2022-11-06T08:43:39.977Z,86.05
2022-11-06T08:46:09.820Z,86.42
2022-11-06T08:48:38.102Z,86.91
2022-11-06T08:51:06.704Z,87.61
2022-11-06T08:53:35.292Z,87.86
2022-11-06T08:56:04.841Z,87.62
2022-11-06T08:58:32.971Z,87.27
2022-11-06T09:01:01.035Z,87.85
2022-11-06T09:03:29.126Z,88.31
2022-11-06T09:05:57.707Z,88.51
2022-11-06T09:08:26.521Z,88.50
2022-11-06T09:10:58.462Z,88.73
2022-11-06T09:13:27.370Z,88.31
2022-11-06T09:15:55.535Z,88.46
2022-11-06T09:18:23.638Z,88.52
2022-11-06T09:20:56.339Z,88.72
2022-11-06T09:23:24.794Z,88.57
2022-11-06T09:25:52.990Z,88.60
2022-11-06T09:28:21.148Z,88.37
2022-11-06T09:30:49.240Z,88.21
2022-11-06T09:33:18.316Z,88.30
2022-11-06T09:35:46.632Z,88.24
2022-11-06T09:38:17.371Z,87.79
2022-11-06T09:40:52.717Z,87.48
2022-11-06T09:46:32.056Z,88.08
2022-11-06T09:49:03.129Z,88.10
2022-11-06T09:51:52.078Z,87.18
2022-11-06T09:54:27.573Z,86.99
2022-11-06T09:57:06.450Z,86.72
2022-11-06T09:59:37.687Z,86.73
2022-11-06T10:02:20.307Z,86.47
2022-11-06T10:05:18.740Z,85.87
2022-11-06T10:07:52.015Z,86.09
2022-11-06T10:10:26.808Z,86.52
2022-11-06T10:13:04.675Z,86.73
2022-11-06T10:15:45.177Z,86.33
2022-11-06T10:18:38.361Z,84.87
2022-11-06T10:21:12.834Z,84.75
2022-11-06T10:23:51.031Z,84.58
2022-11-06T10:26:28.673Z,84.50
2022-11-06T10:29:18.135Z,84.18
2022-11-06T10:32:34.540Z,84.25
2022-11-06T10:35:12.088Z,83.45
2022-11-06T10:37:48.015Z,83.11
2022-11-06T10:40:21.596Z,83.59
2022-11-06T10:43:09.072Z,83.22
2022-11-06T10:45:41.451Z,82.58
2022-11-06T10:48:29.868Z,82.79
2022-11-06T10:51:34.508Z,82.54
2022-11-06T10:54:14.312Z,81.61
2022-11-06T10:56:57.347Z,80.87
2022-11-06T10:59:25.682Z,79.94
2022-11-06T11:01:54.440Z,79.37
2022-11-06T11:04:22.661Z,78.78
2022-11-06T11:06:50.805Z,78.44
2022-11-06T11:09:28.722Z,79.34
2022-11-06T11:12:00.590Z,79.16
2022-11-06T11:14:31.276Z,78.82
2022-11-06T11:17:01.555Z,78.58
2022-11-06T11:19:39.012Z,78.79
2022-11-06T11:22:16.046Z,78.80
2022-11-06T11:25:08.686Z,77.99
2022-11-06T11:27:46.074Z,78.43
2022-11-06T11:30:23.458Z,77.60
2022-11-06T11:32:52.585Z,76.49
2022-11-06T11:35:27.326Z,76.66
2022-11-06T11:38:26.136Z,76.95
2022-11-06T11:41:08.007Z,77.36
2022-11-06T11:43:36.185Z,76.83
2022-11-06T11:46:05.427Z,76.46
2022-11-06T11:48:45.741Z,76.68
2022-11-06T11:51:19.709Z,76.49
2022-11-06T11:53:47.944Z,76.63
2022-11-06T11:56:36.210Z,76.38
2022-11-06T11:59:11.096Z,75.52
2022-11-06T12:01:40.913Z,75.19
2022-11-06T12:04:19.745Z,74.91
2022-11-06T12:06:54.805Z,74.94
2022-11-06T12:09:24.165Z,74.31
2022-11-06T12:11:54.659Z,74.55
2022-11-06T12:14:22.632Z,73.87
2022-11-06T12:16:53.794Z,73.58
2022-11-06T12:19:26.461Z,73.79
2022-11-06T12:22:02.119Z,73.37
2022-11-06T12:24:43.396Z,73.40
2022-11-06T12:27:18.554Z,72.87
2022-11-06T12:29:58.055Z,72.67
2022-11-06T12:32:31.976Z,72.79
2022-11-06T12:35:27.875Z,72.86
2022-11-06T12:38:26.722Z,73.38
2022-11-06T12:41:01.366Z,73.54
2022-11-06T12:43:37.509Z,73.24
2022-11-06T12:46:36.564Z,73.08
2022-11-06T12:49:32.400Z,73.07
2022-11-06T12:52:25.832Z,72.98
2022-11-06T12:55:18.037Z,72.64
2022-11-06T12:58:07.547Z,72.97
2022-11-06T13:00:57.148Z,73.05
2022-11-06T13:03:28.418Z,72.68
2022-11-06T13:05:59.278Z,72.60
2022-11-06T13:08:27.363Z,72.64
2022-11-06T13:11:25.045Z,72.69
2022-11-06T13:14:00.848Z,72.82
2022-11-06T13:17:01.181Z,72.78
2022-11-06T13:19:29.355Z,73.09
2022-11-06T13:22:07.745Z,73.07
2022-11-06T13:24:51.722Z,72.91
2022-11-06T13:27:39.720Z,73.47
2022-11-06T13:30:24.562Z,73.23
2022-11-06T13:33:10.950Z,73.11
2022-11-06T13:35:43.373Z,72.90
2022-11-06T13:38:19.467Z,73.05
2022-11-06T13:40:53.730Z,73.10
2022-11-06T13:43:45.858Z,73.43
2022-11-06T13:46:45.001Z,73.58
2022-11-06T13:49:46.616Z,73.40
2022-11-06T13:52:51.020Z,73.70
2022-11-06T13:55:36.114Z,73.80
2022-11-06T13:58:29.123Z,73.92
2022-11-06T14:01:19.030Z,73.74
2022-11-06T14:04:04.276Z,74.08
2022-11-06T14:06:36.799Z,74.48
2022-11-06T14:09:19.154Z,74.46
2022-11-06T14:11:55.215Z,74.45
2022-11-06T14:14:26.367Z,74.71
2022-11-06T14:17:17.720Z,75.11
2022-11-06T14:19:50.214Z,75.10
2022-11-06T14:22:28.344Z,75.38
2022-11-06T14:25:01.480Z,75.49
2022-11-06T14:27:30.098Z,75.46
2022-11-06T14:30:07.966Z,75.57
2022-11-06T14:32:41.153Z,75.42
2022-11-06T14:35:28.835Z,75.57
2022-11-06T14:38:17.671Z,75.62
2022-11-06T14:40:46.172Z,75.75
2022-11-06T14:43:26.487Z,75.88
2022-11-06T14:46:00.480Z,75.89
2022-11-06T14:48:33.900Z,75.85
2022-11-06T14:51:05.765Z,75.69
2022-11-06T14:53:48.426Z,75.72
2022-11-06T14:56:24.693Z,75.88
2022-11-06T14:59:04.248Z,75.91
2022-11-06T15:01:35.474Z,75.82
2022-11-06T15:04:05.916Z,75.99
2022-11-06T15:06:33.967Z,76.20
2022-11-06T15:09:06.754Z,75.99
2022-11-06T15:11:47.439Z,76.21
2022-11-06T15:14:15.925Z,76.29
2022-11-06T15:16:50.736Z,76.32
2022-11-06T15:19:23.705Z,76.38
2022-11-06T15:21:58.011Z,76.45
2022-11-06T15:24:34.576Z,76.49
2022-11-06T15:27:12.899Z,76.49
2022-11-06T15:29:43.262Z,76.46
2022-11-06T15:32:19.579Z,76.62
2022-11-06T15:34:59.836Z,76.73
2022-11-06T15:37:36.196Z,76.84
2022-11-06T15:40:05.515Z,76.87
2022-11-06T15:42:37.255Z,77.06
2022-11-06T15:45:15.762Z,77.19
2022-11-06T15:48:23.454Z,77.32
2022-11-06T15:50:51.478Z,77.09
2022-11-06T15:53:26.248Z,76.88
2022-11-06T15:56:00.276Z,76.94
2022-11-06T15:58:37.464Z,76.79
2022-11-06T16:01:07.897Z,76.91
2022-11-06T16:03:53.590Z,77.01
2022-11-06T16:06:21.866Z,77.25
2022-11-06T16:08:51.259Z,77.34
2022-11-06T16:11:20.679Z,77.51
2022-11-06T16:13:49.686Z,77.60
2022-11-06T16:16:42.234Z,77.82
2022-11-06T16:19:40.177Z,77.98
2022-11-06T16:22:13.339Z,78.17
2022-11-06T16:24:50.673Z,78.26
2022-11-06T16:27:19.836Z,78.45
2022-11-06T16:29:52.594Z,78.51
2022-11-06T16:32:23.762Z,78.64
2022-11-06T16:34:51.879Z,78.79
2022-11-06T16:37:20.918Z,79.07
2022-11-06T16:39:53.681Z,79.26
2022-11-06T16:42:30.686Z,79.20
2022-11-06T16:45:03.164Z,79.30
2022-11-06T16:47:31.312Z,79.36
2022-11-06T16:50:01.947Z,79.42
2022-11-06T16:52:39.315Z,79.25
2022-11-06T16:55:17.388Z,79.36
2022-11-06T16:57:53.557Z,79.13
2022-11-06T17:00:23.737Z,79.20
2022-11-06T17:02:55.743Z,79.07
2022-11-06T17:05:33.712Z,79.23
2022-11-06T17:08:18.497Z,79.24
2022-11-06T17:10:48.146Z,79.28
2022-11-06T17:13:28.122Z,79.16
2022-11-06T17:15:59.206Z,79.30
2022-11-06T17:18:35.983Z,79.31
2022-11-06T17:21:16.102Z,79.43
2022-11-06T17:23:45.946Z,79.46
2022-11-06T17:26:19.973Z,79.68
2022-11-06T17:28:49.479Z,79.74
2022-11-06T17:31:20.210Z,79.91
2022-11-06T17:33:48.898Z,80.05
2022-11-06T17:36:28.740Z,80.02
2022-11-06T17:38:58.010Z,79.95
2022-11-06T17:41:32.958Z,80.14
2022-11-06T17:44:03.092Z,80.14
2022-11-06T17:46:37.222Z,80.17
2022-11-06T17:49:06.522Z,80.52
2022-11-06T17:51:50.669Z,80.97
2022-11-06T17:54:25.502Z,81.05
2022-11-06T17:56:58.164Z,81.18
2022-11-06T17:59:26.824Z,81.40
2022-11-06T18:01:55.329Z,82.01
2022-11-06T18:04:26.630Z,82.25
2022-11-06T18:06:54.956Z,82.46
2022-11-06T18:09:24.281Z,82.63
2022-11-06T18:11:54.199Z,82.83
2022-11-06T18:14:24.805Z,83.39
2022-11-06T18:16:53.922Z,83.65
2022-11-06T18:19:24.196Z,83.98
2022-11-06T18:21:53.961Z,83.86
2022-11-06T18:24:22.709Z,83.85
2022-11-06T18:26:51.823Z,83.57
2022-11-06T18:29:19.991Z,83.36
2022-11-06T18:31:48.152Z,83.37
2022-11-06T18:34:20.507Z,83.49
2022-11-06T18:36:50.623Z,83.89
2022-11-06T18:39:19.706Z,83.82
2022-11-06T18:41:48.262Z,83.93
2022-11-06T18:44:18.230Z,84.23
2022-11-06T18:46:47.877Z,84.40
2022-11-06T18:49:16.040Z,84.69
2022-11-06T18:51:44.277Z,84.84
2022-11-06T18:54:12.892Z,85.33
2022-11-06T18:56:41.534Z,85.29
2022-11-06T18:59:15.340Z,85.42
2022-11-06T19:01:43.942Z,85.51
2022-11-06T19:04:12.305Z,85.46
2022-11-06T19:06:40.894Z,85.30
2022-11-06T19:09:09.884Z,85.22
2022-11-06T19:11:38.492Z,85.11
2022-11-06T19:14:06.723Z,85.05
2022-11-06T19:16:34.887Z,85.21
2022-11-06T19:19:05.689Z,85.24
2022-11-06T19:21:34.957Z,85.26
2022-11-06T19:24:05.978Z,85.08
2022-11-06T19:26:36.395Z,84.87
2022-11-06T19:29:08.291Z,84.84
2022-11-06T19:31:38.663Z,84.79
2022-11-06T19:34:08.375Z,84.98
2022-11-06T19:36:36.640Z,84.95
2022-11-06T19:39:05.841Z,85.15
2022-11-06T19:41:34.438Z,85.09
2022-11-06T19:44:02.684Z,85.04
2022-11-06T19:46:35.873Z,85.02
2022-11-06T19:49:07.000Z,85.16
2022-11-06T19:51:41.078Z,85.29
2022-11-06T19:54:11.349Z,85.31
2022-11-06T19:57:27.189Z,85.30
2022-11-06T19:59:28.049Z,85.38
2022-11-06T20:01:56.437Z,85.50
2022-11-06T20:04:24.931Z,85.48
2022-11-06T20:06:54.359Z,85.40
2022-11-06T20:09:22.951Z,85.45
2022-11-06T20:11:52.932Z,85.59
2022-11-06T20:14:22.043Z,85.51
2022-11-06T20:16:50.597Z,85.51
2022-11-06T20:19:19.773Z,85.67
2022-11-06T20:21:48.529Z,85.71
2022-11-06T20:24:16.624Z,85.75
2022-11-06T20:26:45.002Z,85.85
2022-11-06T20:29:13.343Z,85.79
2022-11-06T20:31:42.370Z,85.90
2022-11-06T20:34:10.388Z,85.68
2022-11-06T20:36:38.801Z,85.76
2022-11-06T20:39:07.174Z,85.88
2022-11-06T20:41:35.314Z,85.98
2022-11-06T20:44:04.462Z,85.90
2022-11-06T20:46:32.759Z,85.60
2022-11-06T20:49:00.851Z,85.30
2022-11-06T20:51:31.832Z,85.15
2022-11-06T20:54:00.737Z,84.89
2022-11-06T20:56:31.911Z,84.35
2022-11-06T20:59:00.080Z,84.38
2022-11-06T21:01:29.647Z,84.24
2022-11-06T21:03:58.567Z,84.22
2022-11-06T21:06:28.168Z,84.62
2022-11-06T21:08:56.690Z,84.86
2022-11-06T21:11:27.651Z,85.22
2022-11-06T21:13:56.520Z,85.51
2022-11-06T21:16:34.057Z,85.92
2022-11-06T21:19:03.583Z,86.29
2022-11-06T21:21:34.053Z,86.49
2022-11-06T21:24:03.155Z,86.72
2022-11-06T21:26:33.753Z,86.67
2022-11-06T21:29:04.505Z,86.74
2022-11-06T21:31:33.412Z,86.98
2022-11-06T21:34:03.202Z,87.00
2022-11-06T21:36:34.120Z,87.19
2022-11-06T21:39:07.656Z,87.22
2022-11-06T21:41:36.754Z,87.34
2022-11-06T21:44:06.304Z,87.54
2022-11-06T21:46:34.834Z,87.63
2022-11-06T21:49:03.155Z,87.58
2022-11-06T21:51:32.558Z,87.73
2022-11-06T21:54:19.730Z,87.79
2022-11-06T21:56:49.727Z,87.84
2022-11-06T21:59:19.933Z,87.91
2022-11-06T22:01:48.104Z,87.86
2022-11-06T22:04:16.316Z,87.69
2022-11-06T22:06:44.709Z,87.49
2022-11-06T22:09:14.235Z,87.35
2022-11-06T22:11:44.261Z,87.22
2022-11-06T22:14:14.985Z,87.12
2022-11-06T22:16:45.746Z,86.98
2022-11-06T22:19:15.466Z,86.86
2022-11-06T22:21:44.715Z,86.93
2022-11-06T22:24:14.026Z,86.85
2022-11-06T22:26:42.251Z,86.81
2022-11-06T22:29:14.312Z,86.47
2022-11-06T22:31:42.876Z,86.53
2022-11-06T22:34:12.432Z,86.18
2022-11-06T22:36:41.310Z,86.15
2022-11-06T22:39:10.786Z,85.88
2022-11-06T22:41:39.609Z,85.82
2022-11-06T22:44:08.245Z,85.48
2022-11-06T22:46:36.946Z,85.89
2022-11-06T22:49:05.435Z,86.39
2022-11-06T22:51:34.465Z,86.76
2022-11-06T22:54:04.017Z,87.05
2022-11-06T22:56:32.749Z,87.54
2022-11-06T22:59:05.453Z,87.99
2022-11-06T23:01:41.199Z,88.18
2022-11-06T23:04:16.650Z,88.37
2022-11-06T23:06:45.662Z,88.34
2022-11-06T23:09:14.517Z,88.45
2022-11-06T23:11:46.130Z,88.69
2022-11-06T23:14:14.949Z,88.93
2022-11-06T23:16:59.184Z,89.04
2022-11-06T23:19:29.741Z,89.15
2022-11-06T23:22:16.902Z,89.52
2022-11-06T23:24:45.685Z,90.05
2022-11-06T23:27:13.980Z,90.33
2022-11-06T23:29:42.168Z,90.83
2022-11-06T23:32:10.499Z,91.18
2022-11-06T23:34:38.757Z,91.23
2022-11-06T23:37:06.898Z,91.33
2022-11-06T23:39:35.116Z,91.50
2022-11-06T23:42:03.196Z,92.05
2022-11-06T23:44:49.985Z,92.11
2022-11-06T23:47:18.454Z,91.94
2022-11-06T23:49:46.481Z,92.27
2022-11-06T23:52:14.937Z,92.34
2022-11-06T23:54:43.627Z,92.25
2022-11-06T23:57:12.938Z,92.22
2022-11-06T23:59:41.424Z,92.11
